AirNav   Air Wisconsin Up To $57,000 Bonus
 
 436 users online  

1J9 Fort Walton Beach Airport
Navarre, Florida, USA

GOING TO NAVARRE?


FAA INFORMATION EFFECTIVE 22 APRIL 2021

Location

FAA Identifier: 1J9
Lat/Long: 30-24-22.7000N 086-49-45.1000W
30-24.378333N 086-49.751667W
30.4063056,-86.8291944
(estimated)
Elevation: 22 ft. / 6.7 m (surveyed)
Variation: 01E (1985)
From city: 2 miles E of NAVARRE, FL
Time zone: UTC -5 (UTC -6 during Standard Time)
Zip code: 32566

Airport Operations

Airport use: Open to the public
Activation date: 05/1969
Control tower: no
ARTCC: JACKSONVILLE CENTER
FSS: GAINESVILLE FLIGHT SERVICE STATION
NOTAMs facility: GNV (NOTAM-D service available)
Attendance: 1000-DUSK
Wind indicator: yes
Segmented circle: no

Airport Communications

CTAF/UNICOM: 122.7
WX ASOS at DTS (19 nm E): 133.925 (850-654-7128)
WX ASOS at PNS (19 nm W): 121.25 (850-436-4799)
WX ASOS at NDZ (20 nm NW): PHONE 850-623-7210

Nearby radio navigation aids

VOR radial/distance  VOR name  Freq  Var
CEWr194/26.4CRESTVIEW VORTAC115.9003E
NUNr098/(26.5)SAUFLEY VOR108.8001E

 
NDB name  Hdg/Dist  Freq  Var  ID
PICKENS098/18.232602WPKZ .--. -.- --..

Airport Services

Airframe service: NONE
Powerplant service: NONE
Bottled oxygen: NONE
Bulk oxygen: NONE

Runway Information

Runway 18/36

Dimensions: 2100 x 65 ft. / 640 x 20 m
Surface: turf, in poor condition
BARE SPOTS SOFT & SANDY S OF MID POINT.
Runway edge markings: WHITE CONES.
Operational restrictions: DEP RWY 18; ARR RWY 36. RWY SLOPES TO 2 FT AT S END. UNLGTD BRUSH, TREES, PRKG & BLDG 65-125 FT W OF CNTRLN FULL LEN.
RUNWAY 18  RUNWAY 36
Latitude: 30-24.551792N30-24.205292N
Longitude: 086-49.750332W086-49.754368W
Elevation: 22.0 ft.2.0 ft.
Traffic pattern: leftleft
Runway heading: 180 magnetic, 181 true000 magnetic, 001 true
Markings: NSTDNSTD
Obstructions: 15 ft. bldg, 87 ft. from runway, 45 ft. left of centerline, 6:1 slope to clear3 ft. brush, 57 ft. from runway, 45 ft. right of centerline, 20:1 slope to clear

Airport Ownership and Management from official FAA records

Ownership: Privately-owned
Owner: BOOMER AVIATION INC.
P.O. BOX 1075
FORT WALTON, FL 32549
Phone 850-244-1313
Manager: SANDY WILLIAMS
P.O. BOX 1075, P.O. BOX
FT WALTON BEACH, FL 32549
Phone (850) 244-1313

Airport Operational Statistics

Aircraft based on the field: 8
Single engine airplanes: 8
    
Aircraft operations: avg 22/day *
91% local general aviation
9% transient general aviation
* for 12-month period ending 06 March 2018

Additional Remarks

BANNER TOWING.
HEL MORE THAN 2500 LB NA.
FOR CD CTC EGLIN APCH 850-882-9152 OR 850-882-9151.

Instrument Procedures

There are no published instrument procedures at 1J9.

Some nearby airports with instrument procedures:

KHRT - Hurlburt Field Airport (7 nm E)
2R4 - Peter Prince Field Airport (16 nm NW)
KVPS - Eglin Air Force Base/Destin-Fort Walton Beach Airport (16 nm E)
KDTS - Destin Executive Airport (19 nm E)
KPNS - Pensacola International Airport (19 nm W)
KNDZ - Whiting Field Naval Air Station South (20 nm NW)
 
Loc | Ops | Rwys | IFR | FBO | Links
Com | Nav | Svcs | Stats | Notes
Area around 1J9 (Fort Walton Beach Airport)
 
Road maps at: MapQuest Bing Google
 
Aerial photo
WARNING: Photo may not be current or correct
Aerial photo of 1J9 (Fort Walton Beach Airport)
Photo by Scott Jackson - PhotosFlorida.com
Photo taken 04-Oct-2007
looking north

Do you have a better or more recent aerial photo of Fort Walton Beach Airport that you would like to share? If so, please send us your photo.

 
Sectional chart

 
Airport distance calculator
Flying to Fort Walton Beach Airport? Find the distance to fly.

From to 1J9

Sunrise and sunset
Times for 13-May-2021
 Local
(UTC-5)
 Zulu
(UTC)
Morning civil twilight05:2910:29
Sunrise05:5510:55
Sunset19:3200:32
Evening civil twilight19:5800:58

Current date and time
Zulu (UTC)  13-May-2021 07:32:11
Local (UTC-5)  13-May-2021 02:32:11
 
METAR
KHRT 
8nm E 
130708Z 05008KT 10SM FEW035 BKN090 OVC130 18/15 A3010 RMK AO2A RAE08 SLP194 $
KVPS 
17nm E 
130704Z AUTO 05010KT 10SM BKN015 BKN035 OVC070 18/15 A3011 RMK AO2 DZB0657E04DZB04 CIG 015V035 BKN015 V SCT SLP203 $
KDTS 
19nm E 
130653Z AUTO 04010G17KT 10SM OVC014 19/16 A3011 RMK AO2 RAE06B25E35 SLP196 P0000 T01890156
KPNS 
19nm W 
130704Z AUTO 04006KT 10SM BKN014 OVC060 19/18 A3011 RMK AO2 T01940178
TAF
KHRT 
8nm E 
130200Z 1302/1408 04010G15KT 9999 BKN020 BKN150 BKN200 QNH3009INS BECMG 1314/1315 04009KT 9999 FEW020 SCT150 SCT200 QNH3016INS BECMG 1318/1319 05010G15KT 9999 SCT200 QNH3014INS TX24/1318Z TN20/1311Z
KVPS 
17nm E 
130440Z 1304/1407 04012KT 9999 BKN015 BKN080 QNH3009INS TEMPO 1304/1311 BKN025 BECMG 1314/1315 02009KT 9999 BKN035 QNH3012INS BECMG 1403/1404 03006KT 9999 FEW035 QNH3018INS TX24/1319Z TN14/1312Z
KPNS 
19nm W 
130520Z 1306/1406 01008KT P6SM BKN050 BKN060 OVC080 FM130900 04007KT P6SM BKN030 FM131500 02010KT P6SM BKN050 FM131800 02009KT P6SM SCT080 FM140300 03008KT P6SM SKC
NOTAMs
Click for the latest NOTAMs
NOTAMs are issued by the DoD/FAA and will open in a separate window not controlled by AirNav.

 

 
 

Would you like to see your business listed on this page?

 If your business provides an interesting product or service to pilots, flight crews, aircraft, or users of the Fort Walton Beach Airport, you should consider listing it here.  To start the listing process, click on the button below
 
Add a business
 

Other Pages about Fort Walton Beach Airport

Update a link
 
Copyright © AirNav, LLC. All rights reserved. Privacy Policy  Contact